LOWL/LNZ METAR and TAF weather

Enter ICAO airport designator
Station Type Date Time Source
LOWL METAR 2022/05/24 12:50 UTC NOAA

LOWL 241250Z AUTO 29008KT 7000 SHRA FEW020 SCT040 FEW040TCU BKN050 18/16 Q1009 TEMPO -SHRA


Station Type Date Time Source
LOWL Decoded METAR 2022/05/24 12:50 UTC NOAA

Linz / Hoersching-Flughafen, Austria (LOWL) 48-14N 014-11E 313M
May 24, 2022 - 08:50 AM EDT / 2022.05.24 1250 UTC
Wind: from the WNW (290 degrees) at 9 MPH (8 KT):0
Visibility: 4 mile(s):0
Sky conditions: mostly cloudy
Weather: rain showers; Towering cumulus clouds observed
Temperature: 64 F (18 C)
Dew Point: 60 F (16 C)
Relative Humidity: 88%
Pressure (altimeter): 29.80 in. Hg (1009 hPa)
ob: LOWL 241250Z AUTO 29008KT 7000 SHRA FEW020 SCT040 FEW040TCU BKN050 18/16 Q1009 TEMPO -SHRA
cycle: 13

Station Type Date Time Source
LOWL TAF 2022/05/24 12:22 UTC NOAA

TAF LOWL 241115Z 2412/2512 30005KT 9999 SCT040 BKN060 TX20/2412Z TN14/2503Z
TEMPO 2412/2509 29010KT SHRA SCT030TCU BKN040 PROB40
TEMPO 2412/2420 VRB15G25KT 4000 TSRA SCT025CB BKN030 PROB30
TEMPO 2500/2505 VRB02KT BKN010

Example: see airport list